Time;durP1;ratioP1;P1;durP2;ratioP2;P2;SDS_P1;SDS_P2;PMS_P1;PMS_P2;Temp;Humidity;BMP_temperature;BMP_pressure;BME280_temperature;BME280_humidity;BME280_pressure;Samples;Min_cycle;Max_cycle;Signal;HPM_P1;HPM_P2
2022/07/27 00:00:29;;;;;;;6.50;1.83;;;;;;;13.89;100.00;101975.22;5055465;28;20368;-47
2022/07/27 00:02:55;;;;;;;6.38;1.63;;;;;;;13.83;100.00;101975.81;5055116;28;20031;-50
2022/07/27 00:05:20;;;;;;;6.35;1.83;;;;;;;13.80;100.00;101975.16;5057070;28;20106;-50
2022/07/27 00:07:45;;;;;;;5.30;1.80;;;;;;;13.76;100.00;101968.41;5057532;28;20078;-49
2022/07/27 00:10:11;;;;;;;8.38;1.80;;;;;;;13.67;100.00;101977.38;5056806;28;20021;-51
2022/07/27 00:12:37;;;;;;;12.00;1.88;;;;;;;13.60;100.00;101976.31;5056977;28;20099;-49
2022/07/27 00:15:04;;;;;;;6.85;1.70;;;;;;;13.57;100.00;101973.91;5055486;28;20024;-51
2022/07/27 00:17:29;;;;;;;10.15;2.00;;;;;;;13.47;100.00;101971.31;5056654;28;20264;-49
2022/07/27 00:19:54;;;;;;;5.57;1.90;;;;;;;13.36;100.00;101963.50;5055160;28;20013;-49
2022/07/27 00:22:21;;;;;;;5.03;1.70;;;;;;;13.29;100.00;101976.63;5057026;28;20078;-47
2022/07/27 00:24:46;;;;;;;9.82;2.05;;;;;;;13.19;100.00;101978.53;5057195;28;20482;-48
2022/07/27 00:27:12;;;;;;;8.63;2.10;;;;;;;13.07;100.00;101972.53;5055687;28;20029;-48
2022/07/27 00:29:37;;;;;;;9.77;2.20;;;;;;;13.11;100.00;101981.13;5053625;28;20056;-49
2022/07/27 00:32:03;;;;;;;4.82;1.92;;;;;;;13.07;100.00;101969.84;5056939;28;20024;-48
2022/07/27 00:34:28;;;;;;;7.60;1.92;;;;;;;13.02;100.00;101967.63;5053315;28;20024;-49
2022/07/27 00:36:53;;;;;;;9.98;2.00;;;;;;;12.99;100.00;101965.22;5056452;28;20013;-49
2022/07/27 00:39:18;;;;;;;10.75;1.80;;;;;;;13.05;100.00;101971.81;5056375;28;20024;-50
2022/07/27 00:41:44;;;;;;;5.97;2.40;;;;;;;13.04;100.00;101967.47;5056802;28;20560;-50
2022/07/27 00:44:11;;;;;;;6.15;2.17;;;;;;;12.99;100.00;101962.53;5054851;28;20020;-48
2022/07/27 00:46:36;;;;;;;7.57;2.30;;;;;;;12.99;100.00;101975.94;5054356;28;20530;-50
2022/07/27 00:49:02;;;;;;;6.93;2.30;;;;;;;13.02;100.00;101961.41;5056841;28;20031;-50
2022/07/27 00:51:27;;;;;;;8.98;2.33;;;;;;;13.03;100.00;101966.63;5055510;28;20686;-50
2022/07/27 00:53:54;;;;;;;8.90;2.55;;;;;;;13.01;100.00;101965.91;5056619;28;20025;-50
2022/07/27 00:56:20;;;;;;;8.45;2.50;;;;;;;12.99;100.00;101967.91;5056363;28;20243;-46
2022/07/27 00:58:48;;;;;;;11.38;2.88;;;;;;;12.96;100.00;101967.38;5055182;28;20056;-50
2022/07/27 01:01:15;;;;;;;6.88;2.60;;;;;;;12.98;100.00;101971.59;5053080;28;20757;-49
2022/07/27 01:03:40;;;;;;;9.45;2.47;;;;;;;12.95;100.00;101971.03;5056016;28;20021;-47
2022/07/27 01:06:06;;;;;;;8.57;2.58;;;;;;;12.98;100.00;101970.72;5055445;28;20090;-50
2022/07/27 01:08:32;;;;;;;8.90;2.50;;;;;;;12.92;100.00;101965.97;5056805;28;20032;-50
2022/07/27 01:10:58;;;;;;;8.40;2.53;;;;;;;12.88;100.00;101970.78;5054338;28;20366;-48
2022/07/27 01:13:25;;;;;;;7.57;2.50;;;;;;;12.85;100.00;101965.72;5056466;28;20024;-51
2022/07/27 01:15:50;;;;;;;6.43;2.35;;;;;;;12.80;100.00;101965.34;5053256;28;20020;-47
2022/07/27 01:18:31;;;;;;;14.55;3.10;;;;;;;12.74;100.00;101960.56;5056633;28;20025;-51
2022/07/27 01:20:58;;;;;;;11.95;2.60;;;;;;;12.67;100.00;101962.97;5055678;28;20033;-48
2022/07/27 01:23:24;;;;;;;7.03;2.38;;;;;;;12.62;100.00;101963.41;5055741;28;20043;-49
2022/07/27 01:25:50;;;;;;;10.57;2.42;;;;;;;12.60;100.00;101973.44;5055770;28;20040;-49
2022/07/27 01:28:15;;;;;;;8.40;2.20;;;;;;;12.64;100.00;101974.84;5056011;28;20116;-48
2022/07/27 01:30:40;;;;;;;8.85;2.60;;;;;;;12.64;100.00;101974.84;5053826;28;20397;-48
2022/07/27 01:33:07;;;;;;;13.63;3.03;;;;;;;12.56;100.00;101977.41;5055625;28;20032;-49
2022/07/27 01:35:34;;;;;;;7.88;2.47;;;;;;;12.50;100.00;101978.00;5054463;28;20108;-48
2022/07/27 01:37:59;;;;;;;8.00;3.08;;;;;;;12.42;100.00;101968.03;5054512;28;20020;-49
2022/07/27 01:40:25;;;;;;;6.88;2.47;;;;;;;12.39;100.00;101976.34;5055531;28;20355;-49
2022/07/27 01:42:50;;;;;;;8.15;2.95;;;;;;;12.41;100.00;101978.88;5055831;28;20195;-48
2022/07/27 01:45:16;;;;;;;5.70;2.40;;;;;;;12.39;100.00;101965.63;5052903;28;20024;-47
2022/07/27 01:47:41;;;;;;;5.53;2.60;;;;;;;12.38;100.00;101958.56;5055824;28;20080;-49
2022/07/27 01:50:07;;;;;;;6.82;2.50;;;;;;;12.39;100.00;101962.06;5053953;28;20024;-47
2022/07/27 01:52:32;;;;;;;6.38;2.08;;;;;;;12.41;100.00;101955.59;5055360;28;20028;-52
2022/07/27 01:54:57;;;;;;;11.95;2.53;;;;;;;12.39;100.00;101946.88;5054826;28;20020;-50
2022/07/27 01:57:23;;;;;;;11.00;2.72;;;;;;;12.39;100.00;101954.91;5055076;28;20406;-47
2022/07/27 01:59:48;;;;;;;10.18;2.33;;;;;;;12.39;100.00;101952.22;5052840;28;20056;-49
2022/07/27 02:02:14;;;;;;;13.35;2.63;;;;;;;12.37;100.00;101959.53;5055898;28;20306;-51
2022/07/27 02:04:41;;;;;;;8.85;2.45;;;;;;;12.34;100.00;101951.81;5054663;28;20549;-49
2022/07/27 02:07:06;;;;;;;7.97;2.40;;;;;;;12.28;100.00;101957.75;5054839;28;20075;-51
2022/07/27 02:09:31;;;;;;;10.65;2.80;;;;;;;12.19;100.00;101950.59;5053300;28;20056;-50
2022/07/27 02:14:40;;;;;;;9.88;2.33;;;;;;;12.17;100.00;101957.91;5052540;28;20027;-50
2022/07/27 02:17:05;;;;;;;6.93;2.25;;;;;;;12.10;100.00;101963.00;5053661;28;20032;-49
2022/07/27 02:19:31;;;;;;;5.32;2.60;;;;;;;12.12;100.00;101958.34;5054622;28;20078;-51
2022/07/27 02:21:56;;;;;;;5.57;2.30;;;;;;;12.08;100.00;101956.94;5054345;28;20012;-50
2022/07/27 02:24:21;;;;;;;8.55;2.45;;;;;;;12.03;100.00;101952.03;5054690;28;20140;-50
2022/07/27 02:26:47;;;;;;;12.50;2.38;;;;;;;11.89;100.00;101950.59;5055052;28;20036;-49
2022/07/27 02:29:12;;;;;;;4.57;2.13;;;;;;;11.86;100.00;101950.91;5050679;28;20540;-50
2022/07/27 02:31:37;;;;;;;8.40;2.50;;;;;;;11.79;100.00;101955.09;5043915;28;20043;-49
2022/07/27 02:34:03;;;;;;;9.85;2.67;;;;;;;11.81;100.00;101953.13;5054190;28;20035;-50
2022/07/27 02:36:28;;;;;;;7.28;2.42;;;;;;;11.83;100.00;101950.31;5052943;28;20020;-51
2022/07/27 02:38:54;;;;;;;6.82;2.38;;;;;;;11.85;100.00;101948.38;5053678;28;20259;-50
2022/07/27 02:41:19;;;;;;;5.93;2.50;;;;;;;11.86;100.00;101948.22;5054910;28;20066;-49
2022/07/27 02:43:45;;;;;;;5.63;2.50;;;;;;;11.80;100.00;101948.78;5053237;28;20028;-47
2022/07/27 02:46:10;;;;;;;4.78;2.25;;;;;;;11.80;100.00;101946.09;5053924;28;20135;-49
2022/07/27 02:48:36;;;;;;;7.68;2.60;;;;;;;11.71;100.00;101947.81;5054286;28;20020;-49
2022/07/27 02:51:01;;;;;;;8.73;2.60;;;;;;;11.66;100.00;101943.84;5054677;28;20498;-49
2022/07/27 02:53:28;;;;;;;10.98;2.67;;;;;;;11.66;100.00;101934.00;5053924;28;20473;-51
2022/07/27 02:55:54;;;;;;;4.43;2.15;;;;;;;11.66;100.00;101936.69;5054118;28;20233;-50
2022/07/27 02:58:20;;;;;;;5.30;2.58;;;;;;;11.68;100.00;101937.38;5054018;28;20050;-50
2022/07/27 03:00:45;;;;;;;5.18;2.30;;;;;;;11.63;100.00;101944.97;5046832;28;20617;-50
2022/07/27 03:03:11;;;;;;;4.00;2.38;;;;;;;11.65;100.00;101942.16;5051206;28;20050;-49
2022/07/27 03:05:36;;;;;;;5.38;2.50;;;;;;;11.65;100.00;101931.47;5053872;28;20301;-46
2022/07/27 03:08:02;;;;;;;10.02;2.63;;;;;;;11.66;100.00;101942.03;5054128;28;20470;-49
2022/07/27 03:10:28;;;;;;;9.82;3.60;;;;;;;11.67;100.00;101938.34;5052882;28;20024;-50
2022/07/27 03:12:53;;;;;;;8.52;3.42;;;;;;;11.69;100.00;101948.91;5055430;28;20031;-50
2022/07/27 03:15:19;;;;;;;6.90;3.00;;;;;;;11.61;100.00;101951.44;5051838;28;20021;-50
2022/07/27 03:17:44;;;;;;;10.15;3.60;;;;;;;11.56;100.00;101947.38;5055840;28;20419;-50
2022/07/27 03:20:10;;;;;;;12.13;3.25;;;;;;;11.54;100.00;101954.69;5053917;28;20089;-49
2022/07/27 03:22:35;;;;;;;11.18;3.20;;;;;;;11.52;100.00;101948.66;5055597;28;20153;-51
2022/07/27 03:25:01;;;;;;;7.35;3.30;;;;;;;11.51;100.00;101957.66;5054324;28;20049;-50
2022/07/27 03:27:27;;;;;;;10.55;3.05;;;;;;;11.49;100.00;101961.44;5053563;28;20078;-49
2022/07/27 03:29:53;;;;;;;7.05;2.80;;;;;;;11.46;100.00;101951.88;5053050;28;20658;-51
2022/07/27 03:32:18;;;;;;;12.95;2.85;;;;;;;11.45;100.00;101958.19;5054249;28;20419;-49
2022/07/27 03:34:43;;;;;;;5.72;2.80;;;;;;;11.39;100.00;101956.09;5054637;28;20021;-50
2022/07/27 03:37:09;;;;;;;12.07;3.47;;;;;;;11.38;100.00;101955.22;5054658;28;20108;-49
2022/07/27 03:39:34;;;;;;;10.30;3.25;;;;;;;11.42;100.00;101952.28;5054535;28;20025;-49
2022/07/27 03:41:59;;;;;;;7.28;3.08;;;;;;;11.43;100.00;101946.81;5054751;28;20032;-50
2022/07/27 03:44:25;;;;;;;6.35;3.20;;;;;;;11.45;100.00;101954.69;5045802;28;20063;-50
2022/07/27 03:46:50;;;;;;;8.63;2.63;;;;;;;11.43;100.00;101959.34;5055480;28;20024;-49
2022/07/27 03:49:15;;;;;;;8.10;3.03;;;;;;;11.42;100.00;101957.63;5053648;28;20008;-50
2022/07/27 03:51:41;;;;;;;7.75;3.22;;;;;;;11.47;100.00;101963.41;5053655;28;20102;-47
2022/07/27 03:54:06;;;;;;;10.10;2.95;;;;;;;11.50;100.00;101953.28;5053550;28;20340;-50
2022/07/27 03:56:32;;;;;;;9.77;3.60;;;;;;;11.50;100.00;101950.59;5055038;28;20377;-48
2022/07/27 03:58:58;;;;;;;15.38;3.47;;;;;;;11.54;100.00;101954.69;5050744;28;20056;-49
2022/07/27 04:01:23;;;;;;;13.05;4.15;;;;;;;11.56;100.00;101958.06;5051784;28;20028;-47
2022/07/27 04:03:48;;;;;;;7.05;3.55;;;;;;;11.56;100.00;101959.91;5052361;28;20391;-50
2022/07/27 04:06:14;;;;;;;8.68;3.85;;;;;;;11.58;100.00;101955.25;5053827;28;20024;-49
2022/07/27 04:08:39;;;;;;;11.55;4.60;;;;;;;11.61;100.00;101964.81;5054624;28;20028;-46
2022/07/27 04:11:04;;;;;;;9.40;4.03;;;;;;;11.69;100.00;101963.16;5053756;28;20135;-48
2022/07/27 04:13:30;;;;;;;8.25;3.83;;;;;;;11.75;100.00;101951.03;5056768;28;20123;-47
2022/07/27 04:15:56;;;;;;;13.30;4.35;;;;;;;11.84;100.00;101960.88;5056025;28;20439;-49
2022/07/27 04:18:22;;;;;;;10.55;4.60;;;;;;;11.90;100.00;101965.69;5055818;28;20056;-46
2022/07/27 04:20:47;;;;;;;15.60;5.18;;;;;;;11.94;100.00;101958.22;5058007;28;20107;-48
2022/07/27 04:23:13;;;;;;;11.45;4.30;;;;;;;11.95;100.00;101959.94;5057140;28;20032;-47
2022/07/27 04:25:38;;;;;;;10.60;4.40;;;;;;;12.00;100.00;101967.50;5057956;28;20055;-46
2022/07/27 04:28:03;;;;;;;11.85;4.25;;;;;;;12.03;100.00;101965.44;5057937;28;20145;-48
2022/07/27 04:30:29;;;;;;;7.65;4.05;;;;;;;12.03;100.00;101969.91;5046283;28;20053;-46
2022/07/27 04:32:54;;;;;;;13.27;4.20;;;;;;;12.05;100.00;101965.25;5057682;28;20387;-46
2022/07/27 04:35:20;;;;;;;9.20;4.95;;;;;;;12.09;100.00;101969.34;5055818;28;20396;-46
2022/07/27 04:37:45;;;;;;;11.27;4.50;;;;;;;12.03;100.00;101967.25;5058556;28;20022;-46
2022/07/27 04:40:11;;;;;;;12.45;4.45;;;;;;;12.00;100.00;101970.19;5056704;28;20032;-50
2022/07/27 04:42:36;;;;;;;12.57;4.45;;;;;;;12.02;100.00;101968.25;5057948;28;20100;-46
2022/07/27 04:45:02;;;;;;;8.98;3.88;;;;;;;12.03;100.00;101977.94;5054978;28;20025;-51
2022/07/27 04:47:28;;;;;;;13.63;4.60;;;;;;;12.04;100.00;101975.13;5057402;28;20043;-47
2022/07/27 04:49:54;;;;;;;14.40;4.07;;;;;;;12.02;100.00;101977.09;5056950;28;20025;-47
2022/07/27 04:52:19;;;;;;;14.77;4.22;;;;;;;12.02;100.00;101971.75;5055742;28;20228;-48
2022/07/27 04:54:44;;;;;;;9.63;4.43;;;;;;;12.06;100.00;101975.81;5057727;28;20044;-46
2022/07/27 04:57:10;;;;;;;12.00;4.65;;;;;;;12.06;100.00;101970.47;5056862;28;20067;-47
2022/07/27 04:59:35;;;;;;;11.35;4.30;;;;;;;12.09;100.00;101970.19;5054489;28;20051;-47
2022/07/27 05:02:00;;;;;;;10.90;4.65;;;;;;;12.12;100.00;101977.94;5056173;28;20096;-47
2022/07/27 05:04:26;;;;;;;10.55;4.35;;;;;;;12.13;100.00;101982.31;5056317;28;20561;-46
2022/07/27 05:06:51;;;;;;;14.75;4.45;;;;;;;12.17;100.00;101988.22;5057649;28;20036;-45
2022/07/27 05:09:16;;;;;;;15.15;4.53;;;;;;;12.18;100.00;101986.38;5055650;28;20020;-50
2022/07/27 05:11:41;;;;;;;8.90;4.07;;;;;;;12.23;100.00;101992.16;5056644;28;20024;-46
2022/07/27 05:14:07;;;;;;;14.43;4.05;;;;;;;12.29;100.00;101992.44;5053997;28;20360;-50
2022/07/27 05:16:32;;;;;;;12.32;4.15;;;;;;;12.35;100.00;101998.19;5057135;28;20545;-46
2022/07/27 05:18:57;;;;;;;14.95;4.55;;;;;;;12.39;100.00;101988.88;5056706;28;20032;-47
2022/07/27 05:21:23;;;;;;;9.63;4.20;;;;;;;12.40;100.00;101990.56;5056542;28;20024;-47
2022/07/27 05:23:49;;;;;;;15.25;5.10;;;;;;;12.39;100.00;102010.31;5056205;28;20112;-50
2022/07/27 05:26:14;;;;;;;15.32;4.63;;;;;;;12.37;100.00;102001.56;5054828;28;20130;-49
2022/07/27 05:28:39;;;;;;;10.18;4.35;;;;;;;12.46;100.00;102000.72;5054334;28;20232;-49
2022/07/27 05:31:05;;;;;;;10.27;4.60;;;;;;;12.49;100.00;102001.28;5055639;28;20087;-48
2022/07/27 05:33:30;;;;;;;15.00;4.57;;;;;;;12.56;100.00;102004.22;5056476;28;20024;-48
2022/07/27 05:35:55;;;;;;;9.80;4.88;;;;;;;12.62;100.00;102011.66;5056079;28;20017;-48
2022/07/27 05:38:21;;;;;;;8.38;4.55;;;;;;;12.69;100.00;102011.91;5056282;28;20020;-46
2022/07/27 05:40:46;;;;;;;11.65;4.47;;;;;;;12.74;100.00;102006.13;5056106;28;20107;-50
2022/07/27 05:43:12;;;;;;;14.10;5.05;;;;;;;12.81;100.00;102008.09;5056345;28;20047;-47
2022/07/27 05:45:37;;;;;;;10.18;4.78;;;;;;;12.88;100.00;102008.31;5051541;28;20012;-48
2022/07/27 05:48:03;;;;;;;12.40;4.70;;;;;;;12.93;100.00;102005.19;5057105;28;20494;-50
2022/07/27 05:50:28;;;;;;;11.27;4.68;;;;;;;13.00;100.00;102003.59;5056453;28;20013;-45
2022/07/27 05:52:55;;;;;;;12.95;5.20;;;;;;;13.07;100.00;102004.72;5056062;28;20024;-46
2022/07/27 05:55:21;;;;;;;16.90;5.15;;;;;;;13.14;100.00;102013.00;5055388;28;20111;-49
2022/07/27 05:57:46;;;;;;;18.42;5.13;;;;;;;13.21;100.00;102017.63;5055953;28;20327;-47
2022/07/27 06:00:11;;;;;;;12.60;5.00;;;;;;;13.31;100.00;102014.06;5053907;28;20028;-49
2022/07/27 06:02:37;;;;;;;13.35;5.13;;;;;;;13.39;100.00;102015.00;5054757;28;20047;-50
2022/07/27 06:05:04;;;;;;;10.55;4.68;;;;;;;13.50;100.00;102024.69;5056371;28;20021;-48
2022/07/27 06:10:13;;;;;;;10.25;4.22;;;;;;;13.70;100.00;102024.56;5055745;28;20047;-52
2022/07/27 06:12:40;;;;;;;15.52;4.25;;;;;;;13.79;100.00;102027.16;5055783;28;20712;-50
2022/07/27 06:15:08;;;;;;;13.45;3.88;;;;;;;13.94;100.00;102026.63;5051555;28;20452;-48
2022/07/27 06:17:33;;;;;;;9.45;3.92;;;;;;;14.02;100.00;102026.69;5056059;28;20617;-50
2022/07/27 06:19:59;;;;;;;10.70;4.05;;;;;;;14.13;100.00;102028.28;5055283;28;20027;-45
2022/07/27 06:22:24;;;;;;;8.40;3.22;;;;;;;14.25;100.00;102027.03;5055596;28;20059;-49
2022/07/27 06:24:50;;;;;;;9.25;3.15;;;;;;;14.38;100.00;102015.06;5055020;28;20021;-49
2022/07/27 06:27:15;;;;;;;8.73;3.10;;;;;;;14.49;100.00;102026.38;5055593;28;20462;-50
2022/07/27 06:29:40;;;;;;;10.40;2.80;;;;;;;14.61;100.00;102018.91;5047811;28;20049;-49
2022/07/27 06:32:06;;;;;;;10.48;2.60;;;;;;;14.76;100.00;102031.78;5050068;28;20436;-51
2022/07/27 06:34:31;;;;;;;7.70;1.90;;;;;;;14.85;100.00;102026.28;5054874;28;20078;-50
2022/07/27 06:36:58;;;;;;;15.45;1.80;;;;;;;14.98;100.00;102019.63;5055373;28;20055;-49
2022/07/27 06:39:24;;;;;;;6.28;1.75;;;;;;;15.06;100.00;102025.03;5055168;28;20985;-45
2022/07/27 06:41:49;;;;;;;7.60;1.60;;;;;;;15.12;100.00;102021.69;5055178;28;20025;-48
2022/07/27 06:44:15;;;;;;;6.20;1.73;;;;;;;15.18;100.00;102023.72;5052682;28;20115;-46
2022/07/27 06:46:41;;;;;;;6.57;1.40;;;;;;;15.31;100.00;102025.97;5055768;28;20024;-49
2022/07/27 06:49:06;;;;;;;7.78;1.70;;;;;;;15.45;100.00;102025.31;5053540;28;20032;-49
2022/07/27 06:51:32;;;;;;;7.68;1.50;;;;;;;15.59;100.00;102026.53;5056042;28;20486;-48
2022/07/27 06:53:57;;;;;;;6.88;1.73;;;;;;;15.67;99.85;102036.50;5054539;28;20020;-46
2022/07/27 06:56:22;;;;;;;6.50;1.92;;;;;;;15.77;100.00;102039.06;5055106;28;20918;-50
2022/07/27 06:58:48;;;;;;;8.15;1.60;;;;;;;15.93;100.00;102030.16;5050728;28;20396;-49
2022/07/27 07:01:14;;;;;;;7.30;1.75;;;;;;;16.13;98.15;102033.38;5047925;28;20047;-50
2022/07/27 07:03:39;;;;;;;5.85;1.70;;;;;;;16.35;98.92;102039.91;5054741;28;20051;-45
2022/07/27 07:06:04;;;;;;;9.98;2.45;;;;;;;16.59;97.38;102036.34;5053917;28;20021;-47
2022/07/27 07:08:30;;;;;;;9.00;2.58;;;;;;;16.79;97.27;102037.63;5055191;28;20017;-51
2022/07/27 07:10:55;;;;;;;9.80;2.33;;;;;;;16.88;94.74;102033.09;5054646;28;20028;-46
2022/07/27 07:13:20;;;;;;;8.30;1.95;;;;;;;16.98;94.15;102038.28;5054420;28;20567;-48
2022/07/27 07:15:46;;;;;;;10.93;2.00;;;;;;;17.02;94.49;102042.31;5052987;28;20077;-47
2022/07/27 07:18:12;;;;;;;15.15;2.33;;;;;;;17.28;92.55;102042.03;5054374;28;20388;-49
2022/07/27 07:20:38;;;;;;;7.15;2.15;;;;;;;17.65;92.36;102048.59;5054918;28;20028;-46
2022/07/27 07:23:04;;;;;;;8.95;2.08;;;;;;;17.89;91.34;102052.19;5054315;28;20021;-48
2022/07/27 07:25:30;;;;;;;7.80;1.70;;;;;;;18.12;89.11;102046.75;5054585;28;20082;-48
2022/07/27 07:27:55;;;;;;;13.77;2.20;;;;;;;18.21;88.15;102052.94;5055260;28;20102;-49
2022/07/27 07:30:21;;;;;;;10.50;2.35;;;;;;;18.07;87.97;102054.56;5052102;28;20029;-49
2022/07/27 07:32:47;;;;;;;9.45;2.03;;;;;;;18.23;87.76;102049.03;5055485;28;20058;-51
2022/07/27 07:35:12;;;;;;;19.73;1.80;;;;;;;18.51;86.93;102047.59;5053577;28;20047;-48
2022/07/27 07:37:38;;;;;;;10.23;1.90;;;;;;;18.66;86.81;102050.31;5055150;28;20235;-48
2022/07/27 07:40:05;;;;;;;6.43;1.27;;;;;;;18.84;83.36;102058.97;5054269;28;20021;-51
2022/07/27 07:42:31;;;;;;;8.93;1.60;;;;;;;18.91;80.99;102057.19;5054656;28;20438;-51
2022/07/27 07:44:56;;;;;;;8.18;1.40;;;;;;;19.06;82.89;102059.03;5046853;28;20058;-49
2022/07/27 07:47:22;;;;;;;7.40;1.35;;;;;;;19.23;81.59;102059.66;5053561;28;20145;-50
2022/07/27 07:49:48;;;;;;;8.85;1.52;;;;;;;19.19;81.01;102064.63;5058774;28;20027;-48
2022/07/27 07:52:13;;;;;;;7.15;1.58;;;;;;;19.33;78.78;102063.78;5058813;28;20044;-49
2022/07/27 07:54:39;;;;;;;8.85;1.40;;;;;;;19.48;79.20;102060.19;5058583;28;20013;-46
2022/07/27 07:57:04;;;;;;;5.97;1.30;;;;;;;19.32;78.65;102062.09;5058468;28;20296;-49
2022/07/27 07:59:29;;;;;;;12.15;1.45;;;;;;;19.23;76.79;102063.22;5055426;28;20070;-51
2022/07/27 08:01:54;;;;;;;10.35;1.30;;;;;;;19.01;77.14;102065.03;5058881;28;20055;-51
2022/07/27 08:04:20;;;;;;;9.85;1.33;;;;;;;18.66;77.29;102070.09;5056154;28;20027;-50
2022/07/27 08:06:45;;;;;;;7.63;1.50;;;;;;;18.41;80.87;102069.50;5058986;28;20028;-50
2022/07/27 08:09:12;;;;;;;5.55;1.30;;;;;;;18.25;82.75;102068.63;5057680;28;20503;-48
2022/07/27 08:11:37;;;;;;;9.25;1.90;;;;;;;18.38;81.97;102070.72;5058702;28;20073;-47
2022/07/27 08:14:03;;;;;;;8.05;1.30;;;;;;;18.64;79.91;102074.88;5055867;28;20809;-47
2022/07/27 08:16:28;;;;;;;11.65;1.83;;;;;;;18.88;80.86;102065.66;5057471;28;20032;-47
2022/07/27 08:18:54;;;;;;;5.90;1.20;;;;;;;19.06;75.74;102072.56;5057975;28;20452;-48
2022/07/27 08:21:19;;;;;;;8.70;1.20;;;;;;;19.25;76.35;102069.28;5057879;28;20038;-49
2022/07/27 08:23:44;;;;;;;6.70;1.20;;;;;;;19.33;72.97;102073.75;5058298;28;20487;-46
2022/07/27 08:26:10;;;;;;;6.25;1.30;;;;;;;19.37;73.88;102066.94;5057799;28;20240;-46
2022/07/27 08:28:35;;;;;;;6.60;1.27;;;;;;;19.64;77.74;102076.22;5055953;28;20067;-50
2022/07/27 08:31:00;;;;;;;7.53;1.33;;;;;;;19.83;72.64;102076.66;5048841;28;20028;-48
2022/07/27 08:33:26;;;;;;;3.45;1.13;;;;;;;19.93;69.95;102067.16;5056919;28;20103;-50
2022/07/27 08:35:51;;;;;;;9.00;1.50;;;;;;;20.10;66.78;102069.63;5057226;28;20412;-46
2022/07/27 08:38:17;;;;;;;8.50;1.30;;;;;;;20.25;65.88;102064.97;5057694;28;20023;-48
2022/07/27 08:40:42;;;;;;;4.85;1.27;;;;;;;20.49;66.75;102076.44;5057422;28;20024;-49
2022/07/27 08:43:08;;;;;;;5.90;1.30;;;;;;;20.50;64.44;102075.38;5057417;28;20489;-50
2022/07/27 08:45:35;;;;;;;4.70;1.25;;;;;;;20.47;60.53;102065.75;5055295;28;20024;-48
2022/07/27 08:48:02;;;;;;;8.55;1.00;;;;;;;20.51;59.05;102060.78;5058577;28;20032;-46
2022/07/27 08:50:29;;;;;;;10.70;1.20;;;;;;;20.62;59.80;102060.28;5056742;28;20024;-47
2022/07/27 08:53:06;;;;;;;9.63;1.00;;;;;;;20.75;61.98;102058.69;5057687;28;20074;-51
2022/07/27 08:55:35;;;;;;;5.03;1.13;;;;;;;20.64;54.07;102060.09;5057312;28;20562;-51
2022/07/27 08:58:01;;;;;;;7.00;1.20;;;;;;;20.40;56.80;102064.88;5057547;28;20075;-51
2022/07/27 09:00:27;;;;;;;5.43;1.38;;;;;;;20.16;60.54;102065.28;5050481;28;20491;-48
2022/07/27 09:02:53;;;;;;;9.23;1.70;;;;;;;20.22;61.23;102065.34;5054553;28;20028;-44
2022/07/27 09:05:19;;;;;;;6.93;1.45;;;;;;;20.38;60.65;102066.94;5055693;28;20028;-50
2022/07/27 09:07:44;;;;;;;7.40;1.70;;;;;;;20.33;58.01;102072.09;5057293;28;20173;-49
2022/07/27 09:10:11;;;;;;;6.68;1.30;;;;;;;20.28;58.52;102075.44;5056760;28;20312;-47
2022/07/27 09:12:37;;;;;;;7.13;1.40;;;;;;;20.06;59.56;102081.88;5057234;28;20039;-51
2022/07/27 09:15:05;;;;;;;6.30;1.40;;;;;;;19.80;58.12;102074.34;5070404;28;20027;-52
2022/07/27 09:17:31;;;;;;;4.53;1.17;;;;;;;20.05;61.52;102075.63;5057345;28;20024;-48
2022/07/27 09:19:59;;;;;;;6.43;1.50;;;;;;;20.29;57.55;102068.94;5056234;28;20025;-51
2022/07/27 09:22:41;;;;;;;10.52;1.40;;;;;;;20.97;60.11;102067.59;5056139;28;20187;-50
2022/07/27 09:25:08;;;;;;;5.75;1.40;;;;;;;21.42;56.02;102068.00;5056214;28;20420;-48
2022/07/27 09:27:34;;;;;;;6.28;1.55;;;;;;;21.61;56.71;102071.84;5054874;28;20229;-48
2022/07/27 09:30:02;;;;;;;5.80;1.40;;;;;;;21.38;53.82;102075.69;5055128;28;20047;-50
2022/07/27 09:32:28;;;;;;;8.05;1.23;;;;;;;21.13;55.10;102080.84;5055590;28;20601;-51
2022/07/27 09:34:53;;;;;;;7.78;1.55;;;;;;;21.31;58.99;102074.00;5054108;28;20107;-47
2022/07/27 09:37:23;;;;;;;5.13;1.38;;;;;;;21.08;56.00;102072.47;5056250;28;20021;-50
2022/07/27 09:39:49;;;;;;;12.18;1.70;;;;;;;20.73;58.61;102069.72;5056673;28;20112;-46
2022/07/27 09:42:15;;;;;;;9.77;1.40;;;;;;;20.89;56.90;102065.84;5056668;28;20151;-50
2022/07/27 09:44:41;;;;;;;3.67;1.13;;;;;;;21.18;57.63;102066.63;5049167;28;20114;-49
2022/07/27 09:47:25;;;;;;;3.65;1.40;;;;;;;21.11;57.97;102063.88;5056529;28;20495;-49
2022/07/27 09:49:51;;;;;;;4.90;1.25;;;;;;;21.08;58.07;102072.47;5043668;28;20067;-49
2022/07/27 09:52:29;;;;;;;6.45;1.25;;;;;;;21.31;56.91;102068.59;5055128;28;20030;-49
2022/07/27 09:55:01;;;;;;;6.50;1.50;;;;;;;21.51;55.03;102069.53;5043630;28;20415;-51
2022/07/27 09:57:27;;;;;;;5.93;1.30;;;;;;;21.64;52.65;102065.16;5055299;28;20024;-50
2022/07/27 10:00:10;;;;;;;8.65;1.58;;;;;;;21.58;51.94;102069.53;5053693;28;20399;-51
2022/07/27 10:02:36;;;;;;;5.20;1.40;;;;;;;21.89;56.76;102066.25;5056575;28;20040;-50
2022/07/27 10:05:02;;;;;;;5.57;1.63;;;;;;;22.12;55.02;102055.00;5055895;28;20035;-50
2022/07/27 10:07:28;;;;;;;6.95;1.50;;;;;;;22.25;52.38;102061.47;5056656;28;20063;-51
2022/07/27 10:09:54;;;;;;;6.63;1.50;;;;;;;22.52;52.04;102067.78;5053934;28;20025;-50
2022/07/27 10:12:19;;;;;;;7.40;1.42;;;;;;;22.47;51.20;102065.69;5054285;28;20034;-50
2022/07/27 10:14:44;;;;;;;6.32;1.40;;;;;;;22.64;52.95;102068.81;5053598;28;20100;-58
2022/07/27 10:17:12;;;;;;;7.25;1.30;;;;;;;22.83;53.88;102069.84;5055290;28;20025;-50
2022/07/27 10:19:46;;;;;;;9.05;1.30;;;;;;;22.33;55.45;102067.56;5054246;28;20482;-50
2022/07/27 10:22:12;;;;;;;6.97;1.40;;;;;;;21.74;57.36;102063.75;5055943;28;20109;-49
2022/07/27 10:24:38;;;;;;;6.60;1.40;;;;;;;21.42;58.37;102059.84;5053861;28;20020;-49
2022/07/27 10:27:26;;;;;;;5.65;1.30;;;;;;;21.15;60.74;102067.06;5055177;28;20025;-49
2022/07/27 10:29:54;;;;;;;9.00;1.70;;;;;;;21.01;60.84;102060.69;5048123;28;20116;-50
2022/07/27 10:32:30;;;;;;;4.25;1.20;;;;;;;20.98;59.96;102061.13;5068393;28;20025;-51
2022/07/27 10:34:55;;;;;;;5.10;1.20;;;;;;;20.78;59.82;102061.84;5054033;28;20059;-50
2022/07/27 10:37:29;;;;;;;4.47;1.20;;;;;;;20.75;62.81;102070.38;5055103;28;20048;-49
2022/07/27 10:42:47;;;;;;;6.93;1.48;;;;;;;20.26;59.01;102065.78;5054982;28;20048;-47
2022/07/27 10:45:15;;;;;;;7.88;1.27;;;;;;;20.19;61.48;102064.91;5052780;28;20028;-49
2022/07/27 10:47:43;;;;;;;12.35;1.70;;;;;;;20.19;62.38;102064.91;5055287;28;20017;-50
2022/07/27 10:50:14;;;;;;;5.90;1.45;;;;;;;20.23;58.55;102063.47;5055082;28;20655;-50
2022/07/27 10:53:06;;;;;;;7.93;1.30;;;;;;;20.28;56.31;102055.56;5055320;28;20228;-48
2022/07/27 10:55:32;;;;;;;7.03;1.33;;;;;;;20.27;58.04;102052.03;5052067;28;20528;-47
2022/07/27 10:58:13;;;;;;;9.07;1.20;;;;;;;20.20;56.75;102058.47;5055444;28;20452;-51
2022/07/27 11:00:47;;;;;;;10.40;1.40;;;;;;;20.03;57.67;102053.28;5047794;28;20073;-47
2022/07/27 11:03:26;;;;;;;8.98;1.50;;;;;;;20.10;58.08;102045.22;5040109;28;20078;-50
2022/07/27 11:06:17;;;;;;;8.85;1.20;;;;;;;20.22;57.05;102040.09;5054884;28;20074;-49
2022/07/27 11:08:44;;;;;;;;;;;;;;;20.40;58.86;102039.59;5044736;28;20574;-50
2022/07/27 11:11:16;;;;;;;4.78;1.00;;;;;;;20.34;56.37;102040.41;5053987;28;19916;-47
2022/07/27 11:13:42;;;;;;;6.50;1.52;;;;;;;20.39;54.65;102036.06;5052667;28;20460;-48
2022/07/27 11:16:09;;;;;;;6.80;1.17;;;;;;;20.31;53.91;102044.34;5055423;28;20033;-49
2022/07/27 11:18:37;;;;;;;3.42;1.40;;;;;;;20.23;53.04;102041.75;5053071;28;20120;-49
2022/07/27 11:21:25;;;;;;;6.32;1.40;;;;;;;20.23;54.65;102042.63;5055821;28;20387;-49